Terminal Aerodrome Forecast
Issued by NWS Sterling, VA

Current Version | Previous Version | Graphics & Text | Print | Product List | Glossary On
Versions: 1 2 3 4 5 6 7 8 9 10 11 12 13 14
000
FTUS41 KLWX 172300
TAFMRB
TAF
KMRB 172333Z 1800/1824 09003KT P6SM FEW080
     FM180800 00000KT 5SM BR BKN080
     FM181200 VRB03KT P6SM SCT050 BKN070
     FM181700 31004KT P6SM SCT035 BKN120=

USA.gov is the U.S. government's official web portal to all federal, state and local government web resources and services.